Superstition Mountain, Arizona
Current Conditions -  °F | °C
As of 5:47 PM on Tuesday 21 Oct 2014 (Local Time) from KIWA Reporting Station
Scattered Clouds Scattered Clouds  
Wind Chill: 82°   Ceiling: Unl
Heat Index: 82°   Visibility: 20mi
Dew Point: 50°   Wind: 0mph
Humidity: 32%   Direction: NA
Pressure: 29.82"   Gusts: NA
Location:  33.2782°N, 111.363°W
Report Text: KIWA 220047Z 00000KT 20SM SCT250 28/10 A2982
Loading
Personal Weather Stations






























Interactive Weather Map
Tropical Storm Tracking
New forecast layout! Learn more

10-Day Weather Forecast

Advertisements
Track Severe Weather on mobile